sensor_id;sensor_type;location;lat;lon;timestamp;P1;durP1;ratioP1;P2;durP2;ratioP2
59824;SDS011;45703;50.898;6.054;2024-02-16T00:02:18;6.13;;;2.05;;
59824;SDS011;45703;50.898;6.054;2024-02-16T00:04:44;7.00;;;2.28;;
59824;SDS011;45703;50.898;6.054;2024-02-16T00:07:09;5.88;;;2.00;;
59824;SDS011;45703;50.898;6.054;2024-02-16T00:09:35;6.75;;;2.30;;
59824;SDS011;45703;50.898;6.054;2024-02-16T00:12:00;6.47;;;1.92;;
59824;SDS011;45703;50.898;6.054;2024-02-16T00:14:26;6.13;;;1.80;;
59824;SDS011;45703;50.898;6.054;2024-02-16T00:16:51;5.70;;;2.03;;
59824;SDS011;45703;50.898;6.054;2024-02-16T00:19:23;6.82;;;2.55;;
59824;SDS011;45703;50.898;6.054;2024-02-16T00:21:50;6.18;;;1.92;;
59824;SDS011;45703;50.898;6.054;2024-02-16T00:24:16;5.75;;;1.80;;
59824;SDS011;45703;50.898;6.054;2024-02-16T00:26:42;6.03;;;2.13;;
59824;SDS011;45703;50.898;6.054;2024-02-16T00:29:10;6.85;;;2.25;;
59824;SDS011;45703;50.898;6.054;2024-02-16T00:31:35;6.05;;;1.95;;
59824;SDS011;45703;50.898;6.054;2024-02-16T00:34:01;7.18;;;2.33;;
59824;SDS011;45703;50.898;6.054;2024-02-16T00:36:26;6.20;;;1.80;;
59824;SDS011;45703;50.898;6.054;2024-02-16T00:38:53;5.78;;;1.70;;
59824;SDS011;45703;50.898;6.054;2024-02-16T00:41:19;5.70;;;1.77;;
59824;SDS011;45703;50.898;6.054;2024-02-16T00:43:45;5.85;;;1.90;;
59824;SDS011;45703;50.898;6.054;2024-02-16T00:46:10;5.68;;;1.75;;
59824;SDS011;45703;50.898;6.054;2024-02-16T00:48:36;6.15;;;2.20;;
59824;SDS011;45703;50.898;6.054;2024-02-16T00:51:01;5.78;;;1.80;;
59824;SDS011;45703;50.898;6.054;2024-02-16T00:53:26;5.78;;;1.90;;
59824;SDS011;45703;50.898;6.054;2024-02-16T00:55:52;5.95;;;1.98;;
59824;SDS011;45703;50.898;6.054;2024-02-16T00:58:17;6.25;;;1.77;;
59824;SDS011;45703;50.898;6.054;2024-02-16T01:00:44;6.05;;;1.90;;
59824;SDS011;45703;50.898;6.054;2024-02-16T01:03:10;5.22;;;1.77;;
59824;SDS011;45703;50.898;6.054;2024-02-16T01:05:37;6.30;;;2.30;;
59824;SDS011;45703;50.898;6.054;2024-02-16T01:08:03;6.90;;;2.00;;
59824;SDS011;45703;50.898;6.054;2024-02-16T01:10:28;6.40;;;2.05;;
59824;SDS011;45703;50.898;6.054;2024-02-16T01:12:54;6.47;;;1.70;;
59824;SDS011;45703;50.898;6.054;2024-02-16T01:15:21;7.72;;;1.98;;
59824;SDS011;45703;50.898;6.054;2024-02-16T01:17:46;7.05;;;2.03;;
59824;SDS011;45703;50.898;6.054;2024-02-16T01:20:11;5.80;;;2.08;;
59824;SDS011;45703;50.898;6.054;2024-02-16T01:22:38;6.00;;;1.90;;
59824;SDS011;45703;50.898;6.054;2024-02-16T01:25:04;5.80;;;1.95;;
59824;SDS011;45703;50.898;6.054;2024-02-16T01:27:29;6.30;;;2.00;;
59824;SDS011;45703;50.898;6.054;2024-02-16T01:29:55;5.80;;;1.90;;
59824;SDS011;45703;50.898;6.054;2024-02-16T01:32:20;6.70;;;1.90;;
59824;SDS011;45703;50.898;6.054;2024-02-16T01:34:46;6.15;;;1.83;;
59824;SDS011;45703;50.898;6.054;2024-02-16T01:37:14;5.93;;;2.00;;
59824;SDS011;45703;50.898;6.054;2024-02-16T01:39:40;5.70;;;2.08;;
59824;SDS011;45703;50.898;6.054;2024-02-16T01:42:05;6.13;;;2.08;;
59824;SDS011;45703;50.898;6.054;2024-02-16T01:44:31;7.30;;;1.98;;
59824;SDS011;45703;50.898;6.054;2024-02-16T01:46:56;6.18;;;1.80;;
59824;SDS011;45703;50.898;6.054;2024-02-16T01:49:21;6.20;;;1.90;;
59824;SDS011;45703;50.898;6.054;2024-02-16T01:51:47;6.93;;;2.30;;
59824;SDS011;45703;50.898;6.054;2024-02-16T01:54:13;6.32;;;2.08;;
59824;SDS011;45703;50.898;6.054;2024-02-16T01:56:40;5.85;;;2.10;;
59824;SDS011;45703;50.898;6.054;2024-02-16T01:59:05;6.28;;;1.70;;
59824;SDS011;45703;50.898;6.054;2024-02-16T02:01:30;5.55;;;1.85;;
59824;SDS011;45703;50.898;6.054;2024-02-16T02:03:56;5.97;;;1.85;;
59824;SDS011;45703;50.898;6.054;2024-02-16T02:06:21;6.68;;;2.33;;
59824;SDS011;45703;50.898;6.054;2024-02-16T02:08:47;5.88;;;2.00;;
59824;SDS011;45703;50.898;6.054;2024-02-16T02:11:12;6.75;;;2.00;;
59824;SDS011;45703;50.898;6.054;2024-02-16T02:13:37;6.15;;;2.15;;
59824;SDS011;45703;50.898;6.054;2024-02-16T02:16:03;6.40;;;2.08;;
59824;SDS011;45703;50.898;6.054;2024-02-16T02:18:31;7.65;;;2.20;;
59824;SDS011;45703;50.898;6.054;2024-02-16T02:20:56;5.53;;;1.85;;
59824;SDS011;45703;50.898;6.054;2024-02-16T02:23:21;6.00;;;2.00;;
59824;SDS011;45703;50.898;6.054;2024-02-16T02:25:47;5.78;;;1.77;;
59824;SDS011;45703;50.898;6.054;2024-02-16T02:28:14;6.22;;;2.05;;
59824;SDS011;45703;50.898;6.054;2024-02-16T02:30:40;5.50;;;1.73;;
59824;SDS011;45703;50.898;6.054;2024-02-16T02:33:06;6.78;;;2.20;;
59824;SDS011;45703;50.898;6.054;2024-02-16T02:35:31;6.32;;;2.25;;
59824;SDS011;45703;50.898;6.054;2024-02-16T02:37:57;5.18;;;1.60;;
59824;SDS011;45703;50.898;6.054;2024-02-16T02:40:22;6.43;;;2.03;;
59824;SDS011;45703;50.898;6.054;2024-02-16T02:42:47;5.63;;;2.00;;
59824;SDS011;45703;50.898;6.054;2024-02-16T02:45:13;6.60;;;2.20;;
59824;SDS011;45703;50.898;6.054;2024-02-16T02:47:38;6.22;;;2.13;;
59824;SDS011;45703;50.898;6.054;2024-02-16T02:50:04;7.15;;;2.30;;
59824;SDS011;45703;50.898;6.054;2024-02-16T02:52:30;5.45;;;1.83;;
59824;SDS011;45703;50.898;6.054;2024-02-16T02:54:55;6.55;;;2.00;;
59824;SDS011;45703;50.898;6.054;2024-02-16T02:57:21;7.45;;;2.03;;
59824;SDS011;45703;50.898;6.054;2024-02-16T02:59:46;6.82;;;2.38;;
59824;SDS011;45703;50.898;6.054;2024-02-16T03:02:11;6.90;;;2.55;;
59824;SDS011;45703;50.898;6.054;2024-02-16T03:04:37;5.78;;;2.03;;
59824;SDS011;45703;50.898;6.054;2024-02-16T03:07:02;6.50;;;2.15;;
59824;SDS011;45703;50.898;6.054;2024-02-16T03:09:27;7.00;;;1.90;;
59824;SDS011;45703;50.898;6.054;2024-02-16T03:11:53;6.75;;;2.25;;
59824;SDS011;45703;50.898;6.054;2024-02-16T03:14:18;6.45;;;2.00;;
59824;SDS011;45703;50.898;6.054;2024-02-16T03:16:44;6.85;;;2.47;;
59824;SDS011;45703;50.898;6.054;2024-02-16T03:19:09;7.13;;;1.77;;
59824;SDS011;45703;50.898;6.054;2024-02-16T03:21:35;6.20;;;2.22;;
59824;SDS011;45703;50.898;6.054;2024-02-16T03:24:01;6.47;;;1.90;;
59824;SDS011;45703;50.898;6.054;2024-02-16T03:26:27;6.22;;;2.17;;
59824;SDS011;45703;50.898;6.054;2024-02-16T03:28:52;5.95;;;1.83;;
59824;SDS011;45703;50.898;6.054;2024-02-16T03:31:18;6.90;;;2.20;;
59824;SDS011;45703;50.898;6.054;2024-02-16T03:33:45;7.38;;;2.35;;
59824;SDS011;45703;50.898;6.054;2024-02-16T03:36:10;7.53;;;2.28;;
59824;SDS011;45703;50.898;6.054;2024-02-16T03:38:40;7.07;;;2.10;;
59824;SDS011;45703;50.898;6.054;2024-02-16T03:41:15;7.68;;;2.65;;
59824;SDS011;45703;50.898;6.054;2024-02-16T03:43:44;6.65;;;2.15;;
59824;SDS011;45703;50.898;6.054;2024-02-16T03:46:10;7.20;;;2.10;;
59824;SDS011;45703;50.898;6.054;2024-02-16T03:48:35;6.50;;;2.20;;
59824;SDS011;45703;50.898;6.054;2024-02-16T03:51:01;7.82;;;2.30;;
59824;SDS011;45703;50.898;6.054;2024-02-16T03:53:28;6.50;;;2.38;;
59824;SDS011;45703;50.898;6.054;2024-02-16T03:55:53;6.68;;;2.35;;
59824;SDS011;45703;50.898;6.054;2024-02-16T03:58:19;6.70;;;2.50;;
59824;SDS011;45703;50.898;6.054;2024-02-16T04:00:44;6.97;;;2.35;;
59824;SDS011;45703;50.898;6.054;2024-02-16T04:03:10;8.10;;;2.22;;
59824;SDS011;45703;50.898;6.054;2024-02-16T04:05:38;6.25;;;2.10;;
59824;SDS011;45703;50.898;6.054;2024-02-16T04:08:04;6.30;;;2.28;;
59824;SDS011;45703;50.898;6.054;2024-02-16T04:10:31;7.25;;;2.42;;
59824;SDS011;45703;50.898;6.054;2024-02-16T04:12:56;7.22;;;2.55;;
59824;SDS011;45703;50.898;6.054;2024-02-16T04:15:22;7.28;;;2.50;;
59824;SDS011;45703;50.898;6.054;2024-02-16T04:17:47;7.53;;;2.70;;
59824;SDS011;45703;50.898;6.054;2024-02-16T04:20:15;8.15;;;2.75;;
59824;SDS011;45703;50.898;6.054;2024-02-16T04:22:41;6.82;;;2.28;;
59824;SDS011;45703;50.898;6.054;2024-02-16T04:25:06;7.28;;;2.70;;
59824;SDS011;45703;50.898;6.054;2024-02-16T04:27:32;6.45;;;2.20;;
59824;SDS011;45703;50.898;6.054;2024-02-16T04:29:57;7.63;;;2.63;;
59824;SDS011;45703;50.898;6.054;2024-02-16T04:32:22;7.07;;;2.35;;
59824;SDS011;45703;50.898;6.054;2024-02-16T04:34:50;6.20;;;2.30;;
59824;SDS011;45703;50.898;6.054;2024-02-16T04:37:17;8.32;;;2.70;;
59824;SDS011;45703;50.898;6.054;2024-02-16T04:39:44;6.88;;;2.20;;
59824;SDS011;45703;50.898;6.054;2024-02-16T04:42:12;7.82;;;2.78;;
59824;SDS011;45703;50.898;6.054;2024-02-16T04:44:37;8.38;;;2.67;;
59824;SDS011;45703;50.898;6.054;2024-02-16T04:47:03;7.57;;;2.60;;
59824;SDS011;45703;50.898;6.054;2024-02-16T04:49:29;6.93;;;2.60;;
59824;SDS011;45703;50.898;6.054;2024-02-16T04:51:55;7.82;;;3.00;;
59824;SDS011;45703;50.898;6.054;2024-02-16T04:54:20;5.80;;;2.70;;
59824;SDS011;45703;50.898;6.054;2024-02-16T04:56:46;7.03;;;2.47;;
59824;SDS011;45703;50.898;6.054;2024-02-16T04:59:11;6.50;;;2.35;;
59824;SDS011;45703;50.898;6.054;2024-02-16T05:01:36;7.65;;;2.90;;
59824;SDS011;45703;50.898;6.054;2024-02-16T05:04:02;7.22;;;2.40;;
59824;SDS011;45703;50.898;6.054;2024-02-16T05:06:28;7.68;;;2.70;;
59824;SDS011;45703;50.898;6.054;2024-02-16T05:08:53;6.43;;;2.20;;
59824;SDS011;45703;50.898;6.054;2024-02-16T05:11:21;6.63;;;2.30;;
59824;SDS011;45703;50.898;6.054;2024-02-16T05:13:47;7.75;;;2.60;;
59824;SDS011;45703;50.898;6.054;2024-02-16T05:16:12;7.55;;;2.40;;
59824;SDS011;45703;50.898;6.054;2024-02-16T05:18:38;7.32;;;2.50;;
59824;SDS011;45703;50.898;6.054;2024-02-16T05:21:04;6.25;;;2.15;;
59824;SDS011;45703;50.898;6.054;2024-02-16T05:23:30;7.15;;;2.30;;
59824;SDS011;45703;50.898;6.054;2024-02-16T05:25:56;7.13;;;2.63;;
59824;SDS011;45703;50.898;6.054;2024-02-16T05:28:21;5.97;;;2.30;;
59824;SDS011;45703;50.898;6.054;2024-02-16T05:30:47;7.35;;;2.40;;
59824;SDS011;45703;50.898;6.054;2024-02-16T05:33:12;7.00;;;2.95;;
59824;SDS011;45703;50.898;6.054;2024-02-16T05:35:39;8.30;;;2.70;;
59824;SDS011;45703;50.898;6.054;2024-02-16T05:38:05;9.18;;;2.70;;
59824;SDS011;45703;50.898;6.054;2024-02-16T05:40:35;6.53;;;2.50;;
59824;SDS011;45703;50.898;6.054;2024-02-16T05:43:18;8.15;;;3.05;;
59824;SDS011;45703;50.898;6.054;2024-02-16T05:45:45;7.22;;;3.00;;
59824;SDS011;45703;50.898;6.054;2024-02-16T05:48:11;8.52;;;3.80;;
59824;SDS011;45703;50.898;6.054;2024-02-16T05:50:37;8.90;;;4.28;;
59824;SDS011;45703;50.898;6.054;2024-02-16T05:53:02;9.15;;;4.60;;
59824;SDS011;45703;50.898;6.054;2024-02-16T05:55:27;9.05;;;4.20;;
59824;SDS011;45703;50.898;6.054;2024-02-16T05:57:53;9.18;;;3.70;;
59824;SDS011;45703;50.898;6.054;2024-02-16T06:00:19;7.60;;;2.92;;
59824;SDS011;45703;50.898;6.054;2024-02-16T06:02:46;7.80;;;2.67;;
59824;SDS011;45703;50.898;6.054;2024-02-16T06:05:12;7.57;;;2.70;;
59824;SDS011;45703;50.898;6.054;2024-02-16T06:07:38;7.03;;;2.90;;
59824;SDS011;45703;50.898;6.054;2024-02-16T06:10:03;9.02;;;3.00;;
59824;SDS011;45703;50.898;6.054;2024-02-16T06:12:32;7.43;;;3.85;;
59824;SDS011;45703;50.898;6.054;2024-02-16T06:14:58;9.05;;;3.45;;
59824;SDS011;45703;50.898;6.054;2024-02-16T06:17:23;8.95;;;3.72;;
59824;SDS011;45703;50.898;6.054;2024-02-16T06:19:51;10.23;;;3.75;;
59824;SDS011;45703;50.898;6.054;2024-02-16T06:22:17;8.60;;;3.90;;
59824;SDS011;45703;50.898;6.054;2024-02-16T06:24:43;10.13;;;3.90;;
59824;SDS011;45703;50.898;6.054;2024-02-16T06:27:09;8.50;;;3.83;;
59824;SDS011;45703;50.898;6.054;2024-02-16T06:29:34;7.78;;;3.35;;
59824;SDS011;45703;50.898;6.054;2024-02-16T06:32:00;7.35;;;3.30;;
59824;SDS011;45703;50.898;6.054;2024-02-16T06:34:27;9.07;;;3.25;;
59824;SDS011;45703;50.898;6.054;2024-02-16T06:36:52;7.60;;;3.20;;
59824;SDS011;45703;50.898;6.054;2024-02-16T06:39:18;7.05;;;3.10;;
59824;SDS011;45703;50.898;6.054;2024-02-16T06:41:44;8.02;;;3.20;;
59824;SDS011;45703;50.898;6.054;2024-02-16T06:44:10;8.80;;;3.85;;
59824;SDS011;45703;50.898;6.054;2024-02-16T06:46:39;8.65;;;4.60;;
59824;SDS011;45703;50.898;6.054;2024-02-16T06:49:05;10.55;;;5.25;;
59824;SDS011;45703;50.898;6.054;2024-02-16T06:51:30;9.23;;;4.68;;
59824;SDS011;45703;50.898;6.054;2024-02-16T06:53:56;10.02;;;4.72;;
59824;SDS011;45703;50.898;6.054;2024-02-16T06:56:21;11.07;;;4.88;;
59824;SDS011;45703;50.898;6.054;2024-02-16T06:58:47;9.30;;;4.57;;
59824;SDS011;45703;50.898;6.054;2024-02-16T07:01:13;9.20;;;4.90;;
59824;SDS011;45703;50.898;6.054;2024-02-16T07:03:39;9.13;;;4.55;;
59824;SDS011;45703;50.898;6.054;2024-02-16T07:06:05;9.85;;;5.00;;
59824;SDS011;45703;50.898;6.054;2024-02-16T07:08:35;9.25;;;4.22;;
59824;SDS011;45703;50.898;6.054;2024-02-16T07:11:01;8.45;;;3.78;;
59824;SDS011;45703;50.898;6.054;2024-02-16T07:13:30;7.45;;;3.35;;
59824;SDS011;45703;50.898;6.054;2024-02-16T07:15:56;9.68;;;3.08;;
59824;SDS011;45703;50.898;6.054;2024-02-16T07:18:21;7.63;;;3.50;;
59824;SDS011;45703;50.898;6.054;2024-02-16T07:20:47;8.32;;;3.33;;
59824;SDS011;45703;50.898;6.054;2024-02-16T07:23:12;9.25;;;4.15;;
59824;SDS011;45703;50.898;6.054;2024-02-16T07:25:40;8.65;;;3.45;;
59824;SDS011;45703;50.898;6.054;2024-02-16T07:28:06;9.45;;;4.80;;
59824;SDS011;45703;50.898;6.054;2024-02-16T07:30:31;9.18;;;4.47;;
59824;SDS011;45703;50.898;6.054;2024-02-16T07:32:58;9.48;;;4.88;;
59824;SDS011;45703;50.898;6.054;2024-02-16T07:35:23;9.57;;;4.18;;
59824;SDS011;45703;50.898;6.054;2024-02-16T07:37:49;8.05;;;3.55;;
59824;SDS011;45703;50.898;6.054;2024-02-16T07:40:18;10.20;;;3.78;;
59824;SDS011;45703;50.898;6.054;2024-02-16T07:42:44;7.20;;;3.30;;
59824;SDS011;45703;50.898;6.054;2024-02-16T07:45:10;7.97;;;3.25;;
59824;SDS011;45703;50.898;6.054;2024-02-16T07:47:37;7.65;;;3.50;;
59824;SDS011;45703;50.898;6.054;2024-02-16T07:50:03;7.38;;;2.90;;
59824;SDS011;45703;50.898;6.054;2024-02-16T07:52:29;7.65;;;3.60;;
59824;SDS011;45703;50.898;6.054;2024-02-16T07:54:54;9.02;;;3.65;;
59824;SDS011;45703;50.898;6.054;2024-02-16T07:57:20;7.53;;;3.30;;
59824;SDS011;45703;50.898;6.054;2024-02-16T07:59:45;8.88;;;3.33;;
59824;SDS011;45703;50.898;6.054;2024-02-16T08:02:11;8.52;;;3.10;;
59824;SDS011;45703;50.898;6.054;2024-02-16T08:04:40;8.55;;;3.25;;
59824;SDS011;45703;50.898;6.054;2024-02-16T08:07:06;8.48;;;3.10;;
59824;SDS011;45703;50.898;6.054;2024-02-16T08:09:32;8.93;;;3.00;;
59824;SDS011;45703;50.898;6.054;2024-02-16T08:11:57;7.72;;;3.50;;
59824;SDS011;45703;50.898;6.054;2024-02-16T08:14:22;7.20;;;2.70;;
59824;SDS011;45703;50.898;6.054;2024-02-16T08:16:48;8.73;;;3.20;;
59824;SDS011;45703;50.898;6.054;2024-02-16T08:19:14;8.45;;;2.90;;
59824;SDS011;45703;50.898;6.054;2024-02-16T08:21:39;8.52;;;3.00;;
59824;SDS011;45703;50.898;6.054;2024-02-16T08:24:05;8.55;;;3.40;;
59824;SDS011;45703;50.898;6.054;2024-02-16T08:26:32;9.70;;;3.42;;
59824;SDS011;45703;50.898;6.054;2024-02-16T08:28:58;7.07;;;2.55;;
59824;SDS011;45703;50.898;6.054;2024-02-16T08:31:24;8.93;;;2.67;;
59824;SDS011;45703;50.898;6.054;2024-02-16T08:33:50;6.45;;;2.60;;
59824;SDS011;45703;50.898;6.054;2024-02-16T08:36:15;6.68;;;2.63;;
59824;SDS011;45703;50.898;6.054;2024-02-16T08:38:41;6.93;;;2.60;;
59824;SDS011;45703;50.898;6.054;2024-02-16T08:41:06;9.27;;;2.90;;
59824;SDS011;45703;50.898;6.054;2024-02-16T08:43:31;8.25;;;3.20;;
59824;SDS011;45703;50.898;6.054;2024-02-16T08:45:57;7.40;;;2.78;;
59824;SDS011;45703;50.898;6.054;2024-02-16T08:48:24;9.63;;;2.92;;
59824;SDS011;45703;50.898;6.054;2024-02-16T08:50:49;8.13;;;2.72;;
59824;SDS011;45703;50.898;6.054;2024-02-16T08:53:15;7.82;;;2.72;;
59824;SDS011;45703;50.898;6.054;2024-02-16T08:55:41;7.78;;;2.92;;
59824;SDS011;45703;50.898;6.054;2024-02-16T08:58:07;7.85;;;2.97;;
59824;SDS011;45703;50.898;6.054;2024-02-16T09:00:33;7.57;;;2.50;;
59824;SDS011;45703;50.898;6.054;2024-02-16T09:02:59;7.68;;;2.63;;
59824;SDS011;45703;50.898;6.054;2024-02-16T09:05:27;8.40;;;2.85;;
59824;SDS011;45703;50.898;6.054;2024-02-16T09:07:52;7.60;;;3.00;;
59824;SDS011;45703;50.898;6.054;2024-02-16T09:10:18;7.60;;;2.72;;
59824;SDS011;45703;50.898;6.054;2024-02-16T09:12:43;7.38;;;2.50;;
59824;SDS011;45703;50.898;6.054;2024-02-16T09:15:09;7.85;;;2.42;;
59824;SDS011;45703;50.898;6.054;2024-02-16T09:17:34;7.22;;;2.65;;
59824;SDS011;45703;50.898;6.054;2024-02-16T09:20:00;7.18;;;2.83;;
59824;SDS011;45703;50.898;6.054;2024-02-16T09:22:25;7.63;;;2.75;;
59824;SDS011;45703;50.898;6.054;2024-02-16T09:24:51;8.43;;;2.83;;
59824;SDS011;45703;50.898;6.054;2024-02-16T09:27:16;8.30;;;2.80;;
59824;SDS011;45703;50.898;6.054;2024-02-16T09:29:42;8.75;;;2.78;;
59824;SDS011;45703;50.898;6.054;2024-02-16T09:32:08;7.72;;;2.90;;
59824;SDS011;45703;50.898;6.054;2024-02-16T09:34:34;8.85;;;2.88;;
59824;SDS011;45703;50.898;6.054;2024-02-16T09:36:59;8.15;;;3.25;;
59824;SDS011;45703;50.898;6.054;2024-02-16T09:39:25;8.55;;;2.70;;
59824;SDS011;45703;50.898;6.054;2024-02-16T09:41:53;8.63;;;3.00;;
59824;SDS011;45703;50.898;6.054;2024-02-16T09:44:19;10.70;;;3.20;;
59824;SDS011;45703;50.898;6.054;2024-02-16T09:46:47;8.50;;;3.20;;
59824;SDS011;45703;50.898;6.054;2024-02-16T09:49:12;7.97;;;2.80;;
59824;SDS011;45703;50.898;6.054;2024-02-16T09:51:37;9.32;;;3.00;;
59824;SDS011;45703;50.898;6.054;2024-02-16T09:54:04;8.40;;;3.08;;
59824;SDS011;45703;50.898;6.054;2024-02-16T09:56:29;8.18;;;3.28;;
59824;SDS011;45703;50.898;6.054;2024-02-16T09:58:55;7.68;;;2.90;;
59824;SDS011;45703;50.898;6.054;2024-02-16T10:01:21;7.28;;;2.97;;
59824;SDS011;45703;50.898;6.054;2024-02-16T10:03:48;9.45;;;3.60;;
59824;SDS011;45703;50.898;6.054;2024-02-16T10:06:14;10.57;;;3.30;;
59824;SDS011;45703;50.898;6.054;2024-02-16T10:08:48;7.72;;;2.78;;
59824;SDS011;45703;50.898;6.054;2024-02-16T10:11:15;9.45;;;3.45;;
59824;SDS011;45703;50.898;6.054;2024-02-16T10:13:41;9.82;;;2.83;;
59824;SDS011;45703;50.898;6.054;2024-02-16T10:16:07;8.13;;;3.38;;
59824;SDS011;45703;50.898;6.054;2024-02-16T10:18:36;7.78;;;3.03;;
59824;SDS011;45703;50.898;6.054;2024-02-16T10:21:02;9.98;;;2.90;;
59824;SDS011;45703;50.898;6.054;2024-02-16T10:23:28;8.32;;;3.17;;
59824;SDS011;45703;50.898;6.054;2024-02-16T10:25:54;9.10;;;3.13;;
59824;SDS011;45703;50.898;6.054;2024-02-16T10:28:20;9.07;;;3.30;;
59824;SDS011;45703;50.898;6.054;2024-02-16T10:30:52;10.40;;;3.88;;
59824;SDS011;45703;50.898;6.054;2024-02-16T10:33:27;7.85;;;3.33;;
59824;SDS011;45703;50.898;6.054;2024-02-16T10:35:53;11.25;;;3.50;;
59824;SDS011;45703;50.898;6.054;2024-02-16T10:38:21;9.90;;;3.38;;
59824;SDS011;45703;50.898;6.054;2024-02-16T10:40:47;9.43;;;3.13;;
59824;SDS011;45703;50.898;6.054;2024-02-16T10:43:15;7.63;;;3.40;;
59824;SDS011;45703;50.898;6.054;2024-02-16T10:45:43;9.02;;;3.20;;
59824;SDS011;45703;50.898;6.054;2024-02-16T10:48:10;10.80;;;3.60;;
59824;SDS011;45703;50.898;6.054;2024-02-16T10:50:36;8.30;;;3.00;;
59824;SDS011;45703;50.898;6.054;2024-02-16T10:53:14;8.35;;;3.17;;
59824;SDS011;45703;50.898;6.054;2024-02-16T10:55:44;13.02;;;3.15;;
59824;SDS011;45703;50.898;6.054;2024-02-16T10:58:12;9.18;;;3.72;;
59824;SDS011;45703;50.898;6.054;2024-02-16T11:00:53;8.35;;;3.15;;
59824;SDS011;45703;50.898;6.054;2024-02-16T11:03:25;8.55;;;3.20;;
59824;SDS011;45703;50.898;6.054;2024-02-16T11:05:53;10.55;;;3.47;;
59824;SDS011;45703;50.898;6.054;2024-02-16T11:08:21;8.90;;;3.28;;
59824;SDS011;45703;50.898;6.054;2024-02-16T11:13:23;8.18;;;3.22;;
59824;SDS011;45703;50.898;6.054;2024-02-16T11:18:27;7.82;;;3.45;;
59824;SDS011;45703;50.898;6.054;2024-02-16T11:20:52;8.05;;;3.35;;
59824;SDS011;45703;50.898;6.054;2024-02-16T11:23:27;7.60;;;3.30;;
59824;SDS011;45703;50.898;6.054;2024-02-16T11:26:03;8.48;;;3.25;;
59824;SDS011;45703;50.898;6.054;2024-02-16T11:28:33;8.68;;;3.40;;
59824;SDS011;45703;50.898;6.054;2024-02-16T11:30:59;7.78;;;3.40;;
59824;SDS011;45703;50.898;6.054;2024-02-16T11:33:25;7.65;;;3.35;;
59824;SDS011;45703;50.898;6.054;2024-02-16T11:36:02;10.85;;;3.88;;
59824;SDS011;45703;50.898;6.054;2024-02-16T11:38:34;8.73;;;3.65;;
59824;SDS011;45703;50.898;6.054;2024-02-16T11:41:03;8.52;;;3.72;;
59824;SDS011;45703;50.898;6.054;2024-02-16T11:43:30;13.07;;;3.70;;
59824;SDS011;45703;50.898;6.054;2024-02-16T11:45:57;9.80;;;3.45;;
59824;SDS011;45703;50.898;6.054;2024-02-16T11:48:24;8.57;;;3.88;;
59824;SDS011;45703;50.898;6.054;2024-02-16T11:50:58;8.02;;;3.72;;
59824;SDS011;45703;50.898;6.054;2024-02-16T11:53:25;7.68;;;3.63;;
59824;SDS011;45703;50.898;6.054;2024-02-16T11:55:50;9.07;;;3.65;;
59824;SDS011;45703;50.898;6.054;2024-02-16T11:58:16;9.63;;;4.25;;
59824;SDS011;45703;50.898;6.054;2024-02-16T12:00:43;7.53;;;3.95;;
59824;SDS011;45703;50.898;6.054;2024-02-16T12:03:10;12.77;;;4.70;;
59824;SDS011;45703;50.898;6.054;2024-02-16T12:05:35;9.50;;;4.88;;
59824;SDS011;45703;50.898;6.054;2024-02-16T12:08:01;10.98;;;4.70;;
59824;SDS011;45703;50.898;6.054;2024-02-16T12:10:26;8.57;;;4.90;;
59824;SDS011;45703;50.898;6.054;2024-02-16T12:12:52;11.38;;;5.20;;
59824;SDS011;45703;50.898;6.054;2024-02-16T12:15:18;10.88;;;4.93;;
59824;SDS011;45703;50.898;6.054;2024-02-16T12:17:44;11.85;;;5.32;;
59824;SDS011;45703;50.898;6.054;2024-02-16T12:20:13;8.68;;;4.95;;
59824;SDS011;45703;50.898;6.054;2024-02-16T12:22:39;10.60;;;5.05;;
59824;SDS011;45703;50.898;6.054;2024-02-16T12:25:05;13.15;;;4.75;;
59824;SDS011;45703;50.898;6.054;2024-02-16T12:27:31;10.73;;;5.30;;
59824;SDS011;45703;50.898;6.054;2024-02-16T12:29:56;10.80;;;5.07;;
59824;SDS011;45703;50.898;6.054;2024-02-16T12:32:21;12.65;;;5.47;;
59824;SDS011;45703;50.898;6.054;2024-02-16T12:34:47;13.48;;;5.82;;
59824;SDS011;45703;50.898;6.054;2024-02-16T12:37:12;10.52;;;5.05;;
59824;SDS011;45703;50.898;6.054;2024-02-16T12:39:38;9.85;;;5.05;;
59824;SDS011;45703;50.898;6.054;2024-02-16T12:42:03;12.77;;;5.65;;
59824;SDS011;45703;50.898;6.054;2024-02-16T12:44:29;12.65;;;5.43;;
59824;SDS011;45703;50.898;6.054;2024-02-16T12:46:55;12.38;;;5.35;;
59824;SDS011;45703;50.898;6.054;2024-02-16T12:49:21;9.93;;;5.28;;
59824;SDS011;45703;50.898;6.054;2024-02-16T12:51:50;12.18;;;5.65;;
59824;SDS011;45703;50.898;6.054;2024-02-16T12:54:17;10.88;;;5.28;;
59824;SDS011;45703;50.898;6.054;2024-02-16T12:56:45;12.45;;;5.65;;
59824;SDS011;45703;50.898;6.054;2024-02-16T12:59:11;10.32;;;5.32;;
59824;SDS011;45703;50.898;6.054;2024-02-16T13:01:37;10.65;;;5.30;;
59824;SDS011;45703;50.898;6.054;2024-02-16T13:04:02;9.82;;;5.00;;
59824;SDS011;45703;50.898;6.054;2024-02-16T13:06:28;13.57;;;6.30;;
59824;SDS011;45703;50.898;6.054;2024-02-16T13:08:53;12.57;;;5.90;;
59824;SDS011;45703;50.898;6.054;2024-02-16T13:11:19;9.85;;;5.10;;
59824;SDS011;45703;50.898;6.054;2024-02-16T13:13:44;11.05;;;5.55;;
59824;SDS011;45703;50.898;6.054;2024-02-16T13:16:09;9.52;;;5.15;;
59824;SDS011;45703;50.898;6.054;2024-02-16T13:18:35;11.88;;;5.88;;
59824;SDS011;45703;50.898;6.054;2024-02-16T13:21:00;11.52;;;5.50;;
59824;SDS011;45703;50.898;6.054;2024-02-16T13:23:26;12.57;;;6.00;;
59824;SDS011;45703;50.898;6.054;2024-02-16T13:25:53;11.10;;;5.30;;
59824;SDS011;45703;50.898;6.054;2024-02-16T13:28:20;10.70;;;5.93;;
59824;SDS011;45703;50.898;6.054;2024-02-16T13:30:45;10.50;;;6.00;;
59824;SDS011;45703;50.898;6.054;2024-02-16T13:33:11;12.20;;;6.43;;
59824;SDS011;45703;50.898;6.054;2024-02-16T13:35:36;12.68;;;5.88;;
59824;SDS011;45703;50.898;6.054;2024-02-16T13:38:02;11.95;;;6.30;;
59824;SDS011;45703;50.898;6.054;2024-02-16T13:40:27;12.15;;;6.40;;
59824;SDS011;45703;50.898;6.054;2024-02-16T13:42:53;11.85;;;6.22;;
59824;SDS011;45703;50.898;6.054;2024-02-16T13:45:24;12.52;;;6.10;;
59824;SDS011;45703;50.898;6.054;2024-02-16T13:47:51;11.30;;;5.85;;
59824;SDS011;45703;50.898;6.054;2024-02-16T13:50:16;10.10;;;5.63;;
59824;SDS011;45703;50.898;6.054;2024-02-16T13:52:41;11.77;;;6.25;;
59824;SDS011;45703;50.898;6.054;2024-02-16T13:55:07;10.00;;;6.18;;
59824;SDS011;45703;50.898;6.054;2024-02-16T13:57:33;10.30;;;6.05;;
59824;SDS011;45703;50.898;6.054;2024-02-16T13:59:58;14.68;;;6.55;;
59824;SDS011;45703;50.898;6.054;2024-02-16T14:02:24;10.63;;;5.95;;
59824;SDS011;45703;50.898;6.054;2024-02-16T14:04:49;11.75;;;6.45;;
59824;SDS011;45703;50.898;6.054;2024-02-16T14:07:16;10.48;;;6.43;;
59824;SDS011;45703;50.898;6.054;2024-02-16T14:09:41;10.60;;;6.15;;
59824;SDS011;45703;50.898;6.054;2024-02-16T14:12:07;12.40;;;6.45;;
59824;SDS011;45703;50.898;6.054;2024-02-16T14:14:32;10.98;;;6.05;;
59824;SDS011;45703;50.898;6.054;2024-02-16T14:16:58;8.55;;;5.00;;
59824;SDS011;45703;50.898;6.054;2024-02-16T14:19:23;9.45;;;5.82;;
59824;SDS011;45703;50.898;6.054;2024-02-16T14:21:49;10.05;;;5.75;;
59824;SDS011;45703;50.898;6.054;2024-02-16T14:24:14;10.82;;;5.68;;
59824;SDS011;45703;50.898;6.054;2024-02-16T14:26:41;9.55;;;5.60;;
59824;SDS011;45703;50.898;6.054;2024-02-16T14:29:07;11.32;;;5.63;;
59824;SDS011;45703;50.898;6.054;2024-02-16T14:31:33;11.07;;;5.72;;
59824;SDS011;45703;50.898;6.054;2024-02-16T14:33:59;10.15;;;5.22;;
59824;SDS011;45703;50.898;6.054;2024-02-16T14:36:25;10.52;;;5.07;;
59824;SDS011;45703;50.898;6.054;2024-02-16T14:38:50;10.20;;;5.40;;
59824;SDS011;45703;50.898;6.054;2024-02-16T14:41:16;8.75;;;4.00;;
59824;SDS011;45703;50.898;6.054;2024-02-16T14:43:41;8.48;;;4.18;;
59824;SDS011;45703;50.898;6.054;2024-02-16T14:46:08;8.00;;;4.13;;